Time;durP1;ratioP1;P1;durP2;ratioP2;P2;SDS_P1;SDS_P2;PMS_P1;PMS_P2;Temp;Humidity;BMP_temperature;BMP_pressure;BME280_temperature;BME280_humidity;BME280_pressure;Samples;Min_cycle;Max_cycle;Signal;HPM_P1;HPM_P2
2023/01/26 00:00:09;;;;;;;24.27;16.17;;;1.30;99.90;;;-141.84;76.24;18846.56;5030307;28;20213;-66
2023/01/26 00:02:38;;;;;;;23.17;15.03;;;1.30;99.90;;;-141.84;76.54;18832.34;5013600;28;20653;-65
2023/01/26 00:05:07;;;;;;;24.30;15.90;;;1.30;99.90;;;-141.84;76.58;18809.97;5013662;28;20261;-66
2023/01/26 00:07:35;;;;;;;24.50;16.20;;;1.20;99.90;;;-141.84;76.78;18862.81;5023636;28;20255;-65
2023/01/26 00:10:04;;;;;;;23.80;15.67;;;1.20;99.90;;;-141.84;76.78;18803.88;5033246;28;20223;-66
2023/01/26 00:12:32;;;;;;;25.27;15.97;;;1.20;99.90;;;-141.84;76.58;18830.31;5033196;28;20682;-66
2023/01/26 00:15:01;;;;;;;24.47;15.23;;;1.10;99.90;;;-141.84;76.39;18830.31;5033671;28;20190;-66
2023/01/26 00:17:30;;;;;;;23.67;15.47;;;1.20;99.90;;;-141.84;75.95;18820.16;5033066;28;20237;-66
2023/01/26 00:19:59;;;;;;;24.77;15.57;;;1.30;99.90;;;-141.84;76.40;18830.31;5033334;28;20226;-66
2023/01/26 00:22:27;;;;;;;25.87;17.10;;;1.20;99.90;;;-141.84;76.84;18832.34;5033096;28;20229;-67
2023/01/26 00:24:55;;;;;;;27.33;16.57;;;1.10;99.90;;;-141.84;77.23;18807.94;5033318;28;20225;-66
2023/01/26 00:27:24;;;;;;;25.37;16.00;;;1.10;99.90;;;-141.84;76.23;18826.25;5032920;28;20209;-66
2023/01/26 00:29:52;;;;;;;24.47;15.07;;;1.20;99.90;;;-141.84;75.91;18828.28;5033592;28;20209;-67
2023/01/26 00:32:21;;;;;;;26.43;16.47;;;1.20;99.90;;;-141.84;76.68;18826.25;5033347;28;20226;-65
2023/01/26 00:34:49;;;;;;;27.57;17.03;;;1.10;99.90;;;-141.84;77.19;18814.03;5033491;28;20229;-66
2023/01/26 00:37:18;;;;;;;26.03;17.27;;;1.10;99.90;;;-141.84;77.13;18779.50;5033288;28;20222;-67
2023/01/26 00:39:46;;;;;;;28.30;17.20;;;1.10;99.90;;;-141.84;77.14;18832.34;5033146;28;20226;-67
2023/01/26 00:42:14;;;;;;;28.50;17.83;;;1.00;99.90;;;-141.84;77.43;18803.88;5033250;28;20226;-67
2023/01/26 00:44:43;;;;;;;27.17;17.23;;;1.00;99.90;;;-141.84;78.02;18793.72;5031987;28;20208;-67
2023/01/26 00:47:13;;;;;;;29.23;18.77;;;1.00;99.90;;;-141.84;77.60;18814.03;5032979;28;20240;-67
2023/01/26 00:49:42;;;;;;;29.53;16.87;;;1.00;99.90;;;-141.84;77.42;18828.28;5033054;28;20229;-67
2023/01/26 00:52:11;;;;;;;27.07;17.03;;;1.00;99.90;;;-141.84;76.85;18820.16;5032527;28;20343;-67
2023/01/26 00:54:40;;;;;;;26.63;15.67;;;1.00;99.90;;;-141.84;77.52;18822.19;5033033;28;20229;-66
2023/01/26 00:57:08;;;;;;;30.10;17.63;;;1.00;99.90;;;-141.84;77.96;18805.91;5023140;28;20238;-65
2023/01/26 00:59:37;;;;;;;26.73;15.83;;;1.00;99.90;;;-141.84;76.83;18842.50;5012788;28;20230;-67
2023/01/26 01:02:05;;;;;;;28.53;17.60;;;1.10;99.90;;;-141.84;77.42;18809.97;5013089;28;20231;-66
2023/01/26 01:04:33;;;;;;;28.20;16.10;;;0.90;99.90;;;-141.84;77.76;18797.78;5012777;28;20263;-67
2023/01/26 01:07:03;;;;;;;29.10;17.00;;;1.00;99.90;;;-141.84;77.64;18814.03;5018147;28;20234;-67
2023/01/26 01:09:31;;;;;;;29.73;16.07;;;0.90;99.90;;;-141.84;77.71;18822.19;5032470;28;20205;-66
2023/01/26 01:11:59;;;;;;;26.60;16.13;;;1.00;99.90;;;-141.84;78.20;18832.34;5033146;28;20254;-67
2023/01/26 01:14:28;;;;;;;26.87;15.70;;;0.90;99.90;;;-141.84;78.60;18777.47;5031702;28;20232;-66
2023/01/26 01:16:56;;;;;;;27.30;15.60;;;0.90;99.90;;;-141.84;78.50;18785.59;5032242;28;20285;-67
2023/01/26 01:19:24;;;;;;;27.93;16.10;;;0.90;99.90;;;-141.84;77.67;18803.88;5031852;28;20717;-67
2023/01/26 01:21:52;;;;;;;24.80;13.87;;;0.80;99.90;;;-141.84;77.14;18807.94;5032087;28;20731;-68
2023/01/26 01:24:22;;;;;;;23.47;14.57;;;0.90;99.90;;;-141.84;77.58;18830.31;5032008;28;20194;-67
2023/01/26 01:26:50;;;;;;;27.20;14.87;;;0.90;99.90;;;-141.84;77.11;18799.81;5032669;28;20256;-67
2023/01/26 01:29:18;;;;;;;26.60;15.03;;;0.90;99.90;;;-141.84;77.48;18793.72;5031404;28;20241;-66
2023/01/26 01:31:46;;;;;;;27.97;15.33;;;0.90;99.90;;;-141.84;77.29;18832.34;5032036;28;20230;-66
2023/01/26 01:34:15;;;;;;;24.93;15.23;;;0.90;99.90;;;-141.84;77.78;18830.31;5032043;28;20275;-67
2023/01/26 01:36:43;;;;;;;24.70;14.90;;;0.80;99.90;;;-141.84;77.97;18775.44;5031958;28;20224;-67
2023/01/26 01:39:11;;;;;;;27.10;14.63;;;0.80;99.90;;;-141.84;78.09;18801.84;5032316;28;20202;-66
2023/01/26 01:41:40;;;;;;;28.40;15.57;;;0.80;99.90;;;-141.84;78.60;18797.78;5051934;28;20221;-68
2023/01/26 01:44:18;;;;;;;28.47;16.07;;;0.70;99.90;;;-141.84;79.18;18755.13;5051457;28;20232;-68
2023/01/26 01:46:53;;;;;;;24.63;14.33;;;0.70;99.90;;;-141.84;79.02;18797.78;5051695;28;20304;-67
2023/01/26 01:49:27;;;;;;;30.77;16.80;;;0.80;99.90;;;-141.84;78.86;18795.75;5051431;28;20241;-67
2023/01/26 01:52:02;;;;;;;30.00;16.93;;;0.80;99.90;;;-141.84;78.86;18807.94;5051577;28;20660;-68
2023/01/26 01:54:36;;;;;;;25.57;15.27;;;0.80;99.90;;;-141.84;78.34;18820.16;5032059;28;20295;-67
2023/01/26 01:57:16;;;;;;;28.60;16.23;;;0.80;99.90;;;-141.84;78.46;18830.31;5031289;28;20229;-66
2023/01/26 01:59:52;;;;;;;29.17;16.80;;;0.80;99.90;;;-141.84;78.22;18783.56;5031199;28;20245;-67
2023/01/26 02:02:20;;;;;;;30.50;17.03;;;0.90;99.90;;;-141.84;77.69;18793.72;5031257;28;20603;-67
2023/01/26 02:04:49;;;;;;;28.10;16.10;;;0.90;99.90;;;-141.84;77.85;18814.03;5031223;28;20240;-66
2023/01/26 02:07:17;;;;;;;28.37;16.17;;;0.90;99.90;;;-141.84;78.34;18799.81;5031436;28;20221;-67
2023/01/26 02:12:35;;;;;;;29.40;16.23;;;0.80;99.90;;;-141.84;78.63;18787.63;5026845;28;20452;-66
2023/01/26 02:15:05;;;;;;;28.37;16.43;;;0.80;99.90;;;-141.84;78.98;18803.88;5031748;28;20200;-68
2023/01/26 02:17:33;;;;;;;28.80;15.53;;;0.80;99.90;;;-141.84;79.32;18777.47;5031181;28;20261;-67
2023/01/26 02:20:11;;;;;;;29.53;15.77;;;0.70;99.90;;;-141.84;79.34;18787.63;5030923;28;20226;-68
2023/01/26 02:22:53;;;;;;;27.67;16.20;;;0.70;99.90;;;-141.84;79.52;18793.72;5030754;28;20225;-67
2023/01/26 02:25:34;;;;;;;27.53;16.10;;;0.70;99.90;;;-141.84;79.00;18755.13;5030759;28;20229;-67
2023/01/26 02:28:04;;;;;;;24.80;15.10;;;0.70;99.90;;;-141.84;78.98;18785.59;5030715;28;20249;-67
2023/01/26 02:30:33;;;;;;;26.07;15.63;;;0.70;99.90;;;-141.84;78.96;18773.41;5031062;28;20206;-67
2023/01/26 02:33:01;;;;;;;25.20;15.27;;;0.70;99.90;;;-141.84;78.66;18773.41;5031195;28;20619;-66
2023/01/26 02:35:30;;;;;;;25.13;14.67;;;0.70;99.90;;;-141.84;78.02;18783.56;5030727;28;20629;-66
2023/01/26 02:37:58;;;;;;;22.73;14.03;;;0.80;99.90;;;-141.84;77.81;18803.88;5030456;28;20230;-68
2023/01/26 02:40:47;;;;;;;23.20;13.93;;;0.80;99.90;;;-141.84;77.55;18765.28;5030761;28;20221;-66
2023/01/26 02:43:16;;;;;;;23.17;13.17;;;0.80;99.90;;;-141.84;77.69;18793.72;5030508;28;20222;-66
2023/01/26 02:45:44;;;;;;;22.17;13.90;;;0.70;99.90;;;-141.84;77.96;18765.28;5019838;28;20223;-68
2023/01/26 02:48:13;;;;;;;24.10;14.13;;;0.80;99.90;;;-141.84;77.86;18824.22;5011714;28;20206;-67
2023/01/26 02:50:40;;;;;;;22.60;13.03;;;0.70;99.90;;;-141.84;77.99;18749.03;5012623;28;20233;-68
2023/01/26 02:53:08;;;;;;;21.60;12.43;;;0.70;99.90;;;-141.84;78.42;18799.81;5025891;28;20245;-66
2023/01/26 02:55:35;;;;;;;23.33;12.90;;;0.70;99.90;;;-141.84;78.30;18783.56;5030069;28;20241;-67
2023/01/26 02:58:05;;;;;;;21.00;12.33;;;0.70;99.90;;;-141.84;78.59;18785.59;5030509;28;20229;-66
2023/01/26 03:00:37;;;;;;;20.80;12.07;;;0.70;99.90;;;-141.84;79.03;18767.31;5030519;28;20236;-67
2023/01/26 03:03:14;;;;;;;20.93;13.00;;;0.70;99.90;;;-141.84;78.85;18777.47;5030635;28;20183;-66
2023/01/26 03:05:42;;;;;;;19.47;12.27;;;0.70;99.90;;;-141.84;79.01;18789.66;5030599;28;20634;-68
2023/01/26 03:08:11;;;;;;;22.13;11.90;;;0.80;99.90;;;-141.84;78.38;18777.47;5040385;28;20700;-66
2023/01/26 03:10:40;;;;;;;19.27;11.23;;;0.80;99.90;;;-141.84;78.99;18795.75;5050115;28;20236;-67
2023/01/26 03:13:08;;;;;;;16.73;9.87;;;0.70;99.90;;;-141.84;79.02;18787.63;5029915;28;20229;-66
2023/01/26 03:15:51;;;;;;;17.73;9.90;;;0.80;99.90;;;-141.84;79.35;18791.69;5020388;28;20225;-67
2023/01/26 03:29:33;;;;;;;15.03;8.53;;;0.80;99.90;;;-141.84;79.14;18822.19;5030583;28;20226;-67
2023/01/26 03:32:02;;;;;;;17.00;8.90;;;0.70;99.90;;;-141.84;79.52;18777.47;5029950;28;20229;-67
2023/01/26 03:34:30;;;;;;;16.70;8.33;;;0.60;99.90;;;-141.84;78.94;18793.72;5029725;28;20241;-67
2023/01/26 03:36:59;;;;;;;14.33;8.67;;;0.60;99.90;;;-141.84;79.38;18773.41;5025087;28;20672;-66
2023/01/26 03:56:20;;;;;;;16.37;9.27;;;0.30;99.90;;;-141.84;82.17;18726.69;5029705;28;20244;-67
2023/01/26 03:58:51;;;;;;;15.93;9.63;;;0.40;99.90;;;-141.84;82.28;18726.69;5030061;28;20598;-67
2023/01/26 04:01:25;;;;;;;18.60;9.57;;;0.30;99.90;;;-141.84;81.25;18769.34;5029410;28;20478;-67
2023/01/26 04:09:31;;;;;;;14.30;8.23;;;0.40;99.90;;;-141.84;80.23;18773.41;5027170;28;20642;-66
2023/01/26 04:12:00;;;;;;;16.27;8.87;;;0.40;99.90;;;-141.84;80.77;18732.78;5021049;28;20685;-67
2023/01/26 04:22:53;;;;;;;18.57;10.00;;;0.10;99.90;;;-141.84;81.77;18730.75;5033285;28;20431;-68
2023/01/26 04:25:22;;;;;;;16.87;9.57;;;0.10;99.90;;;-141.84;82.03;18749.03;5033207;28;20225;-68
2023/01/26 04:27:50;;;;;;;19.00;10.00;;;0.20;99.90;;;-141.84;82.43;18724.66;5033434;28;20225;-67
2023/01/26 04:30:19;;;;;;;15.87;8.47;;;0.20;99.90;;;-141.84;82.49;18742.94;5033372;28;20205;-67
2023/01/26 04:32:48;;;;;;;17.20;9.40;;;0.20;99.90;;;-141.84;82.74;18726.69;5033806;28;20234;-67
2023/01/26 04:35:17;;;;;;;16.70;8.83;;;0.20;99.90;;;-141.84;83.04;18720.59;5032982;28;20652;-66
2023/01/26 04:37:45;;;;;;;17.50;9.63;;;0.20;99.90;;;-141.84;82.34;18720.59;5025749;28;20234;-67
2023/01/26 04:40:14;;;;;;;15.40;8.57;;;0.20;99.90;;;-141.84;82.01;18728.72;5013306;28;20563;-67
2023/01/26 04:42:42;;;;;;;18.63;9.40;;;0.20;99.90;;;-141.84;82.20;18736.84;5015138;28;20230;-67
2023/01/26 04:45:11;;;;;;;18.50;9.47;;;0.20;99.90;;;-141.84;82.46;18734.81;5013693;28;20203;-67
2023/01/26 04:47:39;;;;;;;15.17;8.93;;;0.20;99.90;;;-141.84;82.87;18734.81;5033230;28;20226;-67
2023/01/26 04:50:09;;;;;;;17.23;8.63;;;0.20;99.90;;;-141.84;83.27;18716.53;5032693;28;20222;-67
2023/01/26 04:52:39;;;;;;;15.83;8.63;;;0.20;99.90;;;-141.84;83.29;18724.66;5032528;28;20304;-67
2023/01/26 04:55:09;;;;;;;16.03;9.33;;;0.20;99.90;;;-141.84;83.27;18728.72;5032491;28;20230;-67
2023/01/26 04:57:37;;;;;;;15.33;8.27;;;0.10;99.90;;;-141.84;82.55;18744.97;5032254;28;20231;-67
2023/01/26 05:00:09;;;;;;;14.67;8.10;;;0.20;99.90;;;-141.84;81.71;18736.84;5032968;28;20208;-67
2023/01/26 05:02:39;;;;;;;14.33;8.50;;;0.20;99.90;;;-141.84;81.77;18781.53;5032588;28;20247;-68
2023/01/26 05:05:08;;;;;;;16.50;9.33;;;0.20;99.90;;;-141.84;82.58;18738.88;5032366;28;21066;-67
2023/01/26 05:07:36;;;;;;;17.73;9.93;;;0.20;99.90;;;-141.84;82.00;18718.56;5037803;28;20224;-67
2023/01/26 05:10:07;;;;;;;15.30;8.63;;;0.20;99.90;;;-141.84;82.35;18720.59;5052255;28;20235;-67
2023/01/26 05:12:37;;;;;;;16.20;8.53;;;0.20;99.90;;;-141.84;82.19;18690.09;5036086;28;20226;-66
2023/01/26 05:15:06;;;;;;;15.03;8.77;;;0.20;99.90;;;-141.84;82.56;18696.19;5032456;28;20241;-68
2023/01/26 05:17:35;;;;;;;16.13;9.33;;;0.20;99.90;;;-141.84;83.22;18696.19;5032007;28;20802;-67
2023/01/26 05:20:04;;;;;;;15.57;9.23;;;0.20;99.90;;;-141.84;82.74;18724.66;5032166;28;20399;-67
2023/01/26 05:22:32;;;;;;;18.27;9.53;;;0.20;99.90;;;-141.84;83.11;18700.25;5031939;28;20236;-67
2023/01/26 05:25:00;;;;;;;17.43;10.10;;;0.10;99.90;;;-141.84;83.04;18696.19;5032049;28;20233;-67
2023/01/26 05:27:29;;;;;;;16.33;9.37;;;0.20;99.90;;;-141.84;83.14;18728.72;5031821;28;20504;-67
2023/01/26 05:29:59;;;;;;;18.53;9.70;;;0.20;99.90;;;-141.84;82.88;18688.06;5031747;28;20210;-67
2023/01/26 05:32:28;;;;;;;16.83;10.53;;;0.20;99.90;;;-141.84;82.96;18712.47;5031707;28;20221;-67
2023/01/26 05:34:56;;;;;;;15.50;9.53;;;0.10;99.90;;;-141.84;82.28;18718.56;5031650;28;20233;-67
2023/01/26 05:37:26;;;;;;;15.20;8.97;;;0.20;99.90;;;-141.84;82.13;18706.38;5025294;28;20779;-66
2023/01/26 05:39:54;;;;;;;17.70;9.77;;;0.20;99.90;;;-141.84;82.39;18704.31;5012088;28;20726;-68
2023/01/26 05:42:23;;;;;;;16.90;10.70;;;0.20;99.90;;;-141.84;82.79;18700.25;5011940;28;20496;-68
2023/01/26 05:44:53;;;;;;;17.80;9.90;;;0.20;99.90;;;-141.84;83.08;18716.53;5012526;28;20201;-67
2023/01/26 05:47:21;;;;;;;17.00;9.80;;;0.20;99.90;;;-141.84;82.45;18698.22;5011793;28;20223;-66
2023/01/26 05:49:49;;;;;;;14.00;9.13;;;0.30;99.90;;;-141.84;82.55;18706.38;5011869;28;20313;-68
2023/01/26 05:52:20;;;;;;;17.07;8.83;;;0.30;99.90;;;-141.84;82.63;18724.66;5011781;28;20233;-68
2023/01/26 05:54:48;;;;;;;17.13;9.93;;;0.30;99.90;;;-141.84;82.79;18700.25;5011792;28;20232;-68
2023/01/26 05:57:16;;;;;;;17.70;11.20;;;0.30;99.90;;;-141.84;82.92;18742.94;5011442;28;20237;-67
2023/01/26 05:59:45;;;;;;;17.53;10.30;;;0.20;99.90;;;-141.84;82.57;18712.47;5012363;28;20241;-67
2023/01/26 06:02:14;;;;;;;17.87;10.00;;;0.30;99.90;;;-141.84;82.81;18710.44;5011486;28;20227;-67
2023/01/26 06:04:43;;;;;;;15.70;9.23;;;0.30;99.90;;;-141.84;82.33;18732.78;5011603;28;20227;-67
2023/01/26 06:07:12;;;;;;;14.90;8.17;;;0.30;99.90;;;-141.84;82.05;18747.00;5017970;28;20232;-66
2023/01/26 06:09:40;;;;;;;14.47;8.63;;;0.30;99.90;;;-141.84;82.17;18686.03;5031181;28;20230;-67
2023/01/26 06:12:15;;;;;;;16.00;10.13;;;0.30;99.90;;;-141.84;82.51;18704.31;5031669;28;20202;-68
2023/01/26 06:14:43;;;;;;;17.53;9.93;;;0.20;99.90;;;-141.84;82.11;18708.41;5051050;28;20378;-66
2023/01/26 06:17:17;;;;;;;14.20;9.17;;;0.20;99.90;;;-141.84;82.13;18696.19;5037576;28;20664;-67
2023/01/26 06:19:46;;;;;;;14.93;8.87;;;0.20;99.90;;;-141.84;82.37;18726.69;5030899;28;20612;-68
2023/01/26 06:22:15;;;;;;;14.20;9.27;;;0.30;99.90;;;-141.84;82.47;18726.69;5030816;28;20221;-66
2023/01/26 06:24:43;;;;;;;14.83;9.70;;;0.30;99.90;;;-141.84;82.49;18712.47;5030799;28;20702;-66
2023/01/26 06:27:14;;;;;;;17.00;10.13;;;0.30;99.90;;;-141.84;81.94;18740.91;5031433;28;20242;-67
2023/01/26 06:29:44;;;;;;;17.47;9.93;;;0.30;99.90;;;-141.84;81.59;18704.31;5030871;28;20244;-68
2023/01/26 06:32:15;;;;;;;19.23;10.57;;;0.30;99.90;;;-141.84;81.53;18712.47;5030936;28;20229;-66
2023/01/26 06:34:43;;;;;;;17.33;9.27;;;0.30;99.90;;;-141.84;81.38;18738.88;5030733;28;20292;-69
2023/01/26 06:37:12;;;;;;;15.37;8.97;;;0.30;99.90;;;-141.84;81.23;18722.63;5030634;28;20234;-67
2023/01/26 06:39:41;;;;;;;15.47;9.57;;;0.30;99.90;;;-141.84;81.27;18700.25;5030768;28;20249;-66
2023/01/26 06:42:09;;;;;;;15.40;9.23;;;0.30;99.90;;;-141.84;81.42;18700.25;5031259;28;20203;-66
2023/01/26 06:44:37;;;;;;;15.70;9.63;;;0.30;99.90;;;-141.84;81.69;18722.63;5030455;28;20237;-67
2023/01/26 06:47:06;;;;;;;15.47;9.23;;;0.30;99.90;;;-141.84;81.54;18747.00;5030707;28;20226;-66
2023/01/26 06:49:36;;;;;;;13.83;8.57;;;0.30;99.90;;;-141.84;80.82;18740.91;5030362;28;20596;-67
2023/01/26 06:52:21;;;;;;;14.00;9.07;;;0.30;99.90;;;-141.84;80.91;18736.84;5030389;28;20713;-67
2023/01/26 06:54:50;;;;;;;14.27;8.93;;;0.30;99.90;;;-141.84;81.13;18751.06;5030181;28;20240;-66
2023/01/26 06:57:18;;;;;;;12.87;8.27;;;0.30;99.90;;;-141.84;81.60;18740.91;5029954;28;20714;-65
2023/01/26 06:59:46;;;;;;;15.33;9.03;;;0.30;99.90;;;-141.84;81.15;18694.16;5030580;28;20207;-67
2023/01/26 07:02:19;;;;;;;14.80;9.13;;;0.30;99.90;;;-141.84;80.91;18728.72;5030146;28;20234;-67
2023/01/26 07:04:50;;;;;;;11.87;7.63;;;0.30;99.90;;;-141.84;79.94;18747.00;5030096;28;20221;-67
2023/01/26 07:07:18;;;;;;;12.07;8.00;;;0.30;99.90;;;-141.84;79.49;18724.66;5029845;28;20222;-67
2023/01/26 07:09:46;;;;;;;13.17;7.63;;;0.30;99.90;;;-141.84;79.51;18728.72;5029669;28;20732;-68
2023/01/26 07:12:14;;;;;;;13.17;8.73;;;0.40;99.90;;;-141.84;79.08;18744.97;5027023;28;20671;-65
2023/01/26 07:14:43;;;;;;;13.70;8.27;;;0.30;99.90;;;-141.84;78.76;18736.84;5012984;28;20226;-68
2023/01/26 07:17:11;;;;;;;12.23;7.90;;;0.40;99.90;;;-141.84;78.89;18753.09;5029988;28;20252;-66
2023/01/26 07:19:39;;;;;;;11.63;7.33;;;0.30;99.90;;;-141.84;78.84;18736.84;5029858;28;20226;-66
2023/01/26 07:22:08;;;;;;;11.37;8.10;;;0.40;99.90;;;-141.84;79.01;18765.28;5030000;28;20230;-67
2023/01/26 07:24:37;;;;;;;12.07;8.30;;;0.30;99.90;;;-141.84;78.54;18728.72;5029674;28;20550;-66
2023/01/26 07:27:05;;;;;;;11.33;7.53;;;0.30;99.90;;;-141.84;78.73;18726.69;5030054;28;20206;-67
2023/01/26 07:29:33;;;;;;;11.57;7.23;;;0.40;99.90;;;-141.84;78.75;18749.03;5029303;28;20229;-67
2023/01/26 07:32:01;;;;;;;11.33;7.33;;;0.30;99.90;;;-141.84;77.80;18755.13;5029444;28;20226;-67
2023/01/26 07:34:30;;;;;;;12.13;7.93;;;0.40;99.90;;;-141.84;77.96;18757.16;5028905;28;20230;-67
2023/01/26 07:36:58;;;;;;;10.73;7.57;;;0.50;99.90;;;-141.84;78.20;18763.25;5029545;28;20221;-65
2023/01/26 07:39:27;;;;;;;11.33;7.73;;;0.60;99.90;;;-141.84;78.15;18761.22;5029720;28;20201;-66
2023/01/26 07:41:55;;;;;;;10.13;6.80;;;0.60;99.90;;;-141.84;78.05;18779.50;5030417;28;20258;-65
2023/01/26 07:44:23;;;;;;;11.63;7.13;;;0.60;99.90;;;-141.84;76.35;18753.09;5029547;28;20252;-67
2023/01/26 07:46:53;;;;;;;9.13;6.50;;;0.70;99.90;;;-141.84;76.13;18757.16;5029532;28;20394;-65
2023/01/26 07:49:21;;;;;;;11.60;7.53;;;0.60;99.90;;;-141.84;76.33;18767.31;5029487;28;20740;-66
2023/01/26 07:51:51;;;;;;;12.57;8.20;;;0.60;99.90;;;-141.84;75.58;18779.50;5029615;28;20248;-66
2023/01/26 07:54:21;;;;;;;11.57;7.70;;;0.60;99.90;;;-141.84;76.07;18793.72;5031631;28;20640;-69
2023/01/26 07:56:53;;;;;;;11.90;7.73;;;0.50;99.90;;;-141.84;76.48;18787.63;5033799;28;20230;-66
2023/01/26 07:59:21;;;;;;;11.07;7.80;;;0.50;99.90;;;-141.84;77.07;18722.63;5033329;28;20229;-66
2023/01/26 08:01:51;;;;;;;13.87;9.10;;;0.40;99.90;;;-141.84;76.99;18777.47;5033555;28;20621;-65
2023/01/26 08:04:19;;;;;;;13.23;8.40;;;0.40;99.90;;;-141.84;76.84;18814.03;5033395;28;20654;-66
2023/01/26 08:06:48;;;;;;;10.90;7.43;;;0.50;99.90;;;-141.84;77.25;18767.31;5033621;28;20237;-66
2023/01/26 08:09:17;;;;;;;13.10;8.17;;;0.50;99.90;;;-141.84;76.97;18771.38;5025361;28;20700;-64
2023/01/26 08:11:45;;;;;;;11.13;7.93;;;0.50;99.90;;;-141.84;76.22;18799.81;5034205;28;20205;-66
2023/01/26 08:14:15;;;;;;;11.43;8.13;;;0.50;99.90;;;-141.84;76.51;18791.69;5033009;28;20226;-65
2023/01/26 08:16:44;;;;;;;12.80;8.73;;;0.60;99.90;;;-141.84;76.67;18771.38;5033252;28;20291;-66
2023/01/26 08:19:12;;;;;;;11.67;8.30;;;0.60;99.90;;;-141.84;76.96;18791.69;5033612;28;20232;-67
2023/01/26 08:21:40;;;;;;;11.73;7.93;;;0.50;99.90;;;-141.84;76.65;18789.66;5033111;28;20728;-66
2023/01/26 08:24:11;;;;;;;10.90;8.13;;;0.50;99.90;;;-141.84;76.02;18763.25;5033759;28;20264;-66
2023/01/26 08:26:39;;;;;;;11.63;7.57;;;0.50;99.90;;;-141.84;76.30;18765.28;5033129;28;20289;-66
2023/01/26 08:29:07;;;;;;;11.63;7.83;;;0.50;99.90;;;-141.84;75.95;18755.13;5033115;28;20241;-66
2023/01/26 08:31:38;;;;;;;10.77;7.30;;;0.40;99.90;;;-141.84;76.88;18789.66;5033212;28;20234;-66
2023/01/26 08:34:06;;;;;;;13.50;9.03;;;0.40;99.90;;;-141.84;76.74;18767.31;5033196;28;20493;-65
2023/01/26 08:36:34;;;;;;;11.57;8.20;;;0.40;99.90;;;-141.84;77.27;18744.97;5033100;28;20257;-66
2023/01/26 08:39:03;;;;;;;13.67;8.27;;;0.30;99.90;;;-141.84;77.64;18777.47;5033544;28;20205;-66
2023/01/26 08:41:32;;;;;;;14.37;9.70;;;0.30;99.90;;;-141.84;77.92;18734.81;5032696;28;20228;-65
2023/01/26 08:44:00;;;;;;;12.73;8.57;;;0.30;99.90;;;-141.84;78.43;18805.91;5032783;28;20229;-66
2023/01/26 08:46:28;;;;;;;14.67;9.60;;;0.30;99.90;;;-141.84;77.80;18751.06;5032647;28;20222;-66
2023/01/26 08:48:58;;;;;;;13.30;9.13;;;0.30;99.90;;;-141.84;78.01;18755.13;5032947;28;20468;-65
2023/01/26 08:51:27;;;;;;;12.90;8.57;;;0.30;99.90;;;-141.84;78.31;18761.22;5032391;28;20637;-65
2023/01/26 08:53:55;;;;;;;13.97;9.30;;;0.30;99.90;;;-141.84;78.04;18777.47;5033048;28;20220;-67
2023/01/26 08:56:24;;;;;;;14.93;9.73;;;0.30;99.90;;;-141.84;78.08;18740.91;5032230;28;20240;-67
2023/01/26 08:58:52;;;;;;;15.33;9.43;;;0.30;99.90;;;-141.84;78.81;18763.25;5032503;28;20230;-66
2023/01/26 09:01:20;;;;;;;14.57;9.43;;;0.30;99.90;;;-141.84;79.56;18744.97;5032437;28;20226;-66
2023/01/26 09:03:50;;;;;;;14.73;9.17;;;0.20;99.90;;;-141.84;79.24;18751.06;5032301;28;20714;-66
2023/01/26 09:06:20;;;;;;;13.70;8.83;;;0.30;99.90;;;-141.84;78.78;18779.50;5015385;28;20202;-66
2023/01/26 09:08:48;;;;;;;13.23;8.33;;;0.30;99.90;;;-141.84;78.43;18757.16;5032286;28;20676;-65
2023/01/26 09:11:16;;;;;;;15.53;9.87;;;0.30;99.90;;;-141.84;78.85;18751.06;5032085;28;20297;-66
2023/01/26 09:13:44;;;;;;;13.40;9.23;;;0.30;99.90;;;-141.84;79.27;18757.16;5032080;28;20720;-66
2023/01/26 09:16:19;;;;;;;12.40;8.70;;;0.30;99.90;;;-141.84;78.81;18742.94;5031914;28;20233;-65
2023/01/26 09:18:50;;;;;;;11.67;8.13;;;0.40;99.90;;;-141.84;78.50;18775.44;5031945;28;20742;-65
2023/01/26 09:21:20;;;;;;;12.37;8.33;;;0.30;99.90;;;-141.84;78.82;18736.84;5031908;28;20210;-65
2023/01/26 09:23:48;;;;;;;15.77;9.60;;;0.30;99.90;;;-141.84;78.36;18749.03;5032375;28;20198;-66
2023/01/26 09:26:17;;;;;;;15.87;10.30;;;0.30;99.90;;;-141.84;78.09;18785.59;5032046;28;20222;-66
2023/01/26 09:28:50;;;;;;;13.63;8.90;;;0.30;99.90;;;-141.84;77.53;18744.97;5031959;28;20713;-65
2023/01/26 09:31:19;;;;;;;14.17;9.27;;;0.30;99.90;;;-141.84;77.08;18744.97;5031619;28;20224;-66
2023/01/26 09:33:49;;;;;;;12.47;7.93;;;0.50;99.90;;;-141.84;76.26;18785.59;5031979;28;20225;-66
2023/01/26 09:36:18;;;;;;;12.07;8.37;;;0.30;99.90;;;-141.84;76.40;18765.28;5031842;28;20218;-65
2023/01/26 09:38:47;;;;;;;11.77;7.60;;;0.30;99.90;;;-141.84;76.78;18753.09;5032471;28;20224;-67
2023/01/26 09:41:43;;;;;;;12.17;7.87;;;0.30;99.90;;;-141.84;77.39;18720.59;5031793;28;20233;-67
2023/01/26 09:44:18;;;;;;;12.27;7.77;;;0.30;99.90;;;-141.84;77.41;18765.28;5031805;28;20237;-65
2023/01/26 09:47:04;;;;;;;12.93;7.50;;;0.30;99.90;;;-141.84;77.16;18722.63;5031865;28;20222;-66
2023/01/26 09:49:48;;;;;;;9.47;6.80;;;0.30;99.90;;;-141.84;77.25;18755.13;5031721;28;20227;-66
2023/01/26 09:52:26;;;;;;;10.77;6.50;;;0.30;99.90;;;-141.84;77.49;18781.53;5031879;28;20229;-65
2023/01/26 09:54:59;;;;;;;10.73;6.87;;;0.30;99.90;;;-141.84;76.19;18785.59;5031840;28;20222;-66
2023/01/26 09:57:37;;;;;;;11.57;6.90;;;0.40;99.90;;;-141.84;76.44;18763.25;5031054;28;20694;-64
2023/01/26 10:00:19;;;;;;;9.47;6.90;;;0.40;99.90;;;-141.84;76.09;18789.66;5032128;28;20204;-66
2023/01/26 10:03:03;;;;;;;14.63;7.80;;;0.40;99.90;;;-141.84;76.49;18785.59;5013496;28;20545;-65
2023/01/26 10:05:44;;;;;;;10.87;7.13;;;0.30;99.90;;;-141.84;76.05;18771.38;5030515;28;20226;-65
2023/01/26 10:08:18;;;;;;;12.07;6.87;;;0.30;99.90;;;-141.84;76.10;18751.06;5041488;28;20259;-65
2023/01/26 10:10:52;;;;;;;12.10;7.07;;;0.30;99.90;;;-141.84;76.47;18751.06;5050490;28;20221;-65
2023/01/26 10:13:23;;;;;;;12.10;7.73;;;0.40;99.90;;;-141.84;76.26;18765.28;5030812;28;20231;-66
2023/01/26 10:15:57;;;;;;;11.97;6.93;;;0.40;99.90;;;-141.84;75.59;18759.19;5030953;28;20241;-65
2023/01/26 10:18:33;;;;;;;11.03;6.73;;;0.40;99.90;;;-141.84;74.97;18777.47;5031106;28;20182;-66
2023/01/26 10:21:06;;;;;;;11.77;7.33;;;0.40;99.90;;;-141.84;75.15;18771.38;5031829;28;20190;-65
2023/01/26 10:23:36;;;;;;;11.63;7.77;;;0.40;99.90;;;-141.84;75.55;18805.91;5031038;28;20233;-65
2023/01/26 10:26:13;;;;;;;10.13;6.60;;;0.50;99.90;;;-141.84;75.59;18779.50;5030986;28;20245;-65
2023/01/26 10:28:44;;;;;;;9.83;7.07;;;0.40;99.90;;;-141.84;75.50;18795.75;5030967;28;20249;-66
2023/01/26 10:31:17;;;;;;;9.67;6.43;;;0.50;99.90;;;-141.84;75.15;18785.59;5030651;28;20733;-66
2023/01/26 10:33:52;;;;;;;10.37;6.80;;;0.60;99.90;;;-141.84;74.61;18781.53;5030751;28;20236;-65
2023/01/26 10:36:21;;;;;;;9.60;6.73;;;0.40;99.90;;;-141.84;74.05;18822.19;5031205;28;20190;-66
2023/01/26 10:38:52;;;;;;;10.33;6.77;;;0.60;99.90;;;-141.84;74.20;18803.88;5031269;28;20213;-65
2023/01/26 10:41:28;;;;;;;11.43;7.63;;;0.60;99.90;;;-141.84;74.68;18771.38;5030604;28;20228;-68
2023/01/26 10:43:59;;;;;;;10.33;6.37;;;0.50;99.90;;;-141.84;72.67;18803.88;5030493;28;20230;-65
2023/01/26 10:46:32;;;;;;;10.37;6.40;;;0.60;99.90;;;-141.84;73.64;18801.84;5030959;28;20221;-67
2023/01/26 10:49:13;;;;;;;9.57;6.63;;;0.60;99.90;;;-141.84;74.22;18787.63;5030565;28;20576;-66
2023/01/26 10:51:45;;;;;;;8.57;5.67;;;0.70;99.90;;;-141.84;74.83;18840.47;5030788;28;20221;-65
2023/01/26 10:54:23;;;;;;;9.17;6.27;;;0.70;99.90;;;-141.84;73.71;18814.03;5030870;28;20658;-65
2023/01/26 10:56:56;;;;;;;9.33;6.30;;;0.70;99.90;;;-141.84;74.28;18809.97;5042244;28;20740;-66
2023/01/26 10:59:33;;;;;;;10.37;6.60;;;0.70;99.90;;;-141.84;74.54;18777.47;5010414;28;20726;-65
2023/01/26 11:02:21;;;;;;;10.63;6.63;;;0.60;99.90;;;-141.84;74.08;18777.47;5010636;28;20233;-66